createdAt,value
2022-09-03T00:01:59.297Z,100330.44
2022-09-03T00:04:42.596Z,100330.97
2022-09-03T00:07:20.274Z,100328.16
2022-09-03T00:09:51.856Z,100323.66
2022-09-03T00:12:24.756Z,100325.91
2022-09-03T00:15:03.634Z,100323.06
2022-09-03T00:17:40.967Z,100325.56
2022-09-03T00:20:15.363Z,100323.00
2022-09-03T00:22:46.851Z,100320.75
2022-09-03T00:25:20.715Z,100320.72
2022-09-03T00:27:55.631Z,100325.25
2022-09-03T00:30:24.399Z,100327.72
2022-09-03T00:32:59.363Z,100318.19
2022-09-03T00:35:37.631Z,100318.78
2022-09-03T00:38:06.130Z,100323.22
2022-09-03T00:40:38.931Z,100316.75
2022-09-03T00:43:18.800Z,100316.16
2022-09-03T00:45:51.769Z,100321.75
2022-09-03T00:48:37.212Z,100324.25
2022-09-03T00:51:10.604Z,100320.06
2022-09-03T00:53:55.210Z,100310.56
2022-09-03T00:56:37.499Z,100323.31
2022-09-03T00:59:36.416Z,100326.91
2022-09-03T01:02:18.077Z,100325.78
2022-09-03T01:05:18.330Z,100326.56
2022-09-03T01:08:02.567Z,100327.91
2022-09-03T01:11:10.408Z,100326.22
2022-09-03T01:13:42.877Z,100323.75
2022-09-03T01:16:21.672Z,100324.81
2022-09-03T01:19:28.787Z,100335.06
2022-09-03T01:22:07.154Z,100327.56
2022-09-03T01:24:58.789Z,100334.84
2022-09-03T01:28:01.986Z,100325.00
2022-09-03T01:30:33.482Z,100340.38
2022-09-03T01:33:09.105Z,100334.47
2022-09-03T01:35:48.376Z,100335.88
2022-09-03T01:38:28.852Z,100322.13
2022-09-03T01:41:45.998Z,100319.56
2022-09-03T01:44:12.929Z,100318.50
2022-09-03T01:46:41.916Z,100321.31
2022-09-03T01:49:33.889Z,100323.72
2022-09-03T01:52:13.628Z,100319.53
2022-09-03T01:54:50.392Z,100316.38
2022-09-03T01:57:36.850Z,100313.88
2022-09-03T02:00:13.133Z,100312.16
2022-09-03T02:02:42.064Z,100325.03
2022-09-03T02:05:20.465Z,100313.88
2022-09-03T02:07:56.647Z,100320.84
2022-09-03T02:10:32.183Z,100320.50
2022-09-03T02:13:04.958Z,100324.09
2022-09-03T02:15:34.509Z,100323.78
2022-09-03T02:18:03.945Z,100315.13
2022-09-03T02:20:31.079Z,100320.28
2022-09-03T02:22:59.249Z,100319.72
2022-09-03T02:25:34.766Z,100318.63
2022-09-03T02:28:01.877Z,100323.09
2022-09-03T02:30:28.506Z,100320.56
2022-09-03T02:32:55.241Z,100320.06
2022-09-03T02:35:22.014Z,100319.72
2022-09-03T02:37:48.620Z,100313.63
2022-09-03T02:40:15.209Z,100316.41
2022-09-03T02:42:41.946Z,100307.75
2022-09-03T02:45:26.890Z,100316.56
2022-09-03T02:47:59.631Z,100314.56
2022-09-03T02:50:27.137Z,100309.25
2022-09-03T02:52:54.066Z,100312.28
2022-09-03T02:55:21.144Z,100307.56
2022-09-03T02:57:48.020Z,100299.72
2022-09-03T03:00:15.490Z,100309.16
2022-09-03T03:02:43.209Z,100306.13
2022-09-03T03:05:15.003Z,100303.94
2022-09-03T03:07:41.857Z,100304.44
2022-09-03T03:10:09.308Z,100298.56
2022-09-03T03:12:36.045Z,100306.34
2022-09-03T03:15:02.738Z,100300.81
2022-09-03T03:17:29.467Z,100303.00
2022-09-03T03:19:56.116Z,100299.06
2022-09-03T03:22:23.140Z,100300.44
2022-09-03T03:24:50.490Z,100299.28
2022-09-03T03:27:18.860Z,100304.53
2022-09-03T03:29:45.578Z,100303.69
2022-09-03T03:32:12.313Z,100296.13
2022-09-03T03:34:39.845Z,100300.84
2022-09-03T03:37:06.510Z,100295.81
2022-09-03T03:39:33.334Z,100300.22
2022-09-03T03:42:00.069Z,100297.44
2022-09-03T03:44:26.826Z,100300.47
2022-09-03T03:46:53.737Z,100291.47
2022-09-03T03:49:20.346Z,100289.50
2022-09-03T03:51:47.085Z,100296.72
2022-09-03T03:54:17.473Z,100291.31
2022-09-03T03:56:44.617Z,100290.16
2022-09-03T03:59:18.130Z,100284.59
2022-09-03T04:01:44.763Z,100287.69
2022-09-03T04:04:11.623Z,100279.34
2022-09-03T04:06:38.208Z,100279.25
2022-09-03T04:09:05.041Z,100286.47
2022-09-03T04:11:31.768Z,100275.56
2022-09-03T04:13:58.416Z,100271.84
2022-09-03T04:16:27.073Z,100280.19
2022-09-03T04:18:55.232Z,100274.03
2022-09-03T04:21:24.703Z,100266.81
2022-09-03T04:23:54.030Z,100273.84
2022-09-03T04:26:23.724Z,100269.94
2022-09-03T04:28:50.394Z,100272.06
2022-09-03T04:31:19.635Z,100268.91
2022-09-03T04:33:46.751Z,100265.97
2022-09-03T04:36:23.727Z,100259.41
2022-09-03T04:38:53.431Z,100260.13
2022-09-03T04:41:24.677Z,100269.91
2022-09-03T04:43:52.912Z,100273.22
2022-09-03T04:46:21.009Z,100268.09
2022-09-03T04:48:51.361Z,100267.16
2022-09-03T04:51:24.623Z,100264.66
2022-09-03T04:53:59.668Z,100268.50
2022-09-03T04:56:29.435Z,100268.78
2022-09-03T04:58:58.259Z,100271.78
2022-09-03T05:01:29.003Z,100268.28
2022-09-03T05:03:56.975Z,100272.41
2022-09-03T05:06:25.533Z,100277.53
2022-09-03T05:08:54.281Z,100269.50
2022-09-03T05:11:21.674Z,100273.22
2022-09-03T05:13:50.210Z,100271.88
2022-09-03T05:16:18.972Z,100276.78
2022-09-03T05:18:46.935Z,100279.97
2022-09-03T05:21:16.271Z,100279.47
2022-09-03T05:23:48.796Z,100281.31
2022-09-03T05:26:21.696Z,100277.78
2022-09-03T05:28:48.650Z,100277.78
2022-09-03T05:31:19.003Z,100272.06
2022-09-03T05:33:52.128Z,100270.72
2022-09-03T05:36:22.911Z,100273.50
2022-09-03T05:38:50.667Z,100271.88
2022-09-03T05:41:19.051Z,100261.09
2022-09-03T05:43:51.783Z,100262.75
2022-09-03T05:46:18.534Z,100262.94
2022-09-03T05:48:45.639Z,100263.53
2022-09-03T05:51:17.796Z,100260.41
2022-09-03T05:53:46.880Z,100263.91
2022-09-03T05:56:25.363Z,100265.97
2022-09-03T05:58:57.759Z,100266.13
2022-09-03T06:01:30.867Z,100272.56
2022-09-03T06:04:02.758Z,100272.91
2022-09-03T06:06:31.752Z,100279.06
2022-09-03T06:09:02.642Z,100283.31
2022-09-03T06:11:30.739Z,100283.72
2022-09-03T06:14:01.670Z,100278.25
2022-09-03T06:16:31.520Z,100284.97
2022-09-03T06:19:00.491Z,100282.78
2022-09-03T06:21:27.396Z,100290.09
2022-09-03T06:24:00.244Z,100286.75
2022-09-03T06:26:30.553Z,100286.66
2022-09-03T06:28:57.957Z,100282.53
2022-09-03T06:31:25.629Z,100286.16
2022-09-03T06:33:54.496Z,100286.78
2022-09-03T06:36:22.699Z,100289.06
2022-09-03T06:38:52.956Z,100287.28
2022-09-03T06:41:25.149Z,100291.84
2022-09-03T06:44:04.481Z,100291.06
2022-09-03T06:46:33.460Z,100291.13
2022-09-03T06:49:00.583Z,100285.38
2022-09-03T06:51:29.555Z,100287.00
2022-09-03T06:54:07.762Z,100283.88
2022-09-03T06:56:40.338Z,100285.47
2022-09-03T06:59:10.994Z,100288.38
2022-09-03T07:01:43.555Z,100285.38
2022-09-03T07:04:12.787Z,100280.31
2022-09-03T07:06:42.327Z,100284.00
2022-09-03T07:09:11.631Z,100291.09
2022-09-03T07:11:45.654Z,100300.78
2022-09-03T07:14:13.764Z,100289.19
2022-09-03T07:16:41.978Z,100290.09
2022-09-03T07:19:09.175Z,100292.59
2022-09-03T07:21:37.068Z,100294.44
2022-09-03T07:24:05.954Z,100295.38
2022-09-03T07:26:35.974Z,100301.19
2022-09-03T07:29:03.023Z,100280.53
2022-09-03T07:31:35.877Z,100280.53
2022-09-03T07:34:06.056Z,100282.84
2022-09-03T07:36:42.694Z,100281.16
2022-09-03T07:39:11.502Z,100277.03
2022-09-03T07:41:42.524Z,100282.66
2022-09-03T07:44:09.744Z,100279.31
2022-09-03T07:46:38.104Z,100283.50
2022-09-03T07:49:06.398Z,100287.72
2022-09-03T07:51:38.477Z,100296.38
2022-09-03T07:54:09.120Z,100289.47
2022-09-03T07:56:36.494Z,100289.56
2022-09-03T07:59:04.292Z,100294.94
2022-09-03T08:01:32.743Z,100293.84
2022-09-03T08:04:01.168Z,100281.00
2022-09-03T08:06:29.888Z,100291.34
2022-09-03T08:09:04.463Z,100285.53
2022-09-03T08:11:43.218Z,100284.22
2022-09-03T08:14:12.231Z,100283.97
2022-09-03T08:16:44.635Z,100291.81
2022-09-03T08:19:13.378Z,100291.81
2022-09-03T08:21:44.182Z,100290.66
2022-09-03T08:24:12.093Z,100290.97
2022-09-03T08:26:45.096Z,100299.16
2022-09-03T08:29:14.570Z,100293.56
2022-09-03T08:31:41.435Z,100284.56
2022-09-03T08:34:08.368Z,100290.16
2022-09-03T08:36:37.387Z,100296.84
2022-09-03T08:39:09.973Z,100289.88
2022-09-03T08:41:56.054Z,100293.25
2022-09-03T08:44:30.203Z,100292.78
2022-09-03T08:47:09.115Z,100291.97
2022-09-03T08:49:57.442Z,100291.72
2022-09-03T08:52:42.324Z,100294.53
2022-09-03T08:55:44.779Z,100295.94
2022-09-03T08:58:19.388Z,100297.63
2022-09-03T09:01:04.400Z,100294.56
2022-09-03T09:03:53.050Z,100298.50
2022-09-03T09:06:50.354Z,100294.28
2022-09-03T09:09:39.980Z,100302.13
2022-09-03T09:12:46.913Z,100290.91
2022-09-03T09:15:34.056Z,100287.59
2022-09-03T09:18:18.447Z,100290.66
2022-09-03T09:20:51.940Z,100287.03
2022-09-03T09:23:24.554Z,100285.91
2022-09-03T09:25:55.697Z,100284.78
2022-09-03T09:28:25.268Z,100279.16
2022-09-03T09:30:56.948Z,100281.66
2022-09-03T09:33:25.113Z,100281.94
2022-09-03T09:35:51.723Z,100279.06
2022-09-03T09:38:30.024Z,100286.34
2022-09-03T09:40:58.174Z,100274.75
2022-09-03T09:43:24.940Z,100274.97
2022-09-03T09:45:53.444Z,100277.16
2022-09-03T09:48:31.306Z,100276.81
2022-09-03T09:51:18.671Z,100274.19
2022-09-03T09:53:45.423Z,100284.03
2022-09-03T09:56:26.038Z,100285.84
2022-09-03T09:59:07.558Z,100273.28
2022-09-03T10:01:37.910Z,100284.09
2022-09-03T10:04:33.222Z,100283.81
2022-09-03T10:07:31.660Z,100284.75
2022-09-03T10:10:05.884Z,100285.16
2022-09-03T10:12:42.264Z,100279.94
2022-09-03T10:15:26.013Z,100275.19
2022-09-03T10:18:04.516Z,100282.19
2022-09-03T10:20:44.800Z,100281.56
2022-09-03T10:23:17.949Z,100279.31
2022-09-03T10:25:57.932Z,100276.78
2022-09-03T10:28:29.043Z,100271.63
2022-09-03T10:31:26.727Z,100274.59
2022-09-03T10:34:08.435Z,100267.19
2022-09-03T10:36:42.683Z,100271.03
2022-09-03T10:39:20.357Z,100269.56
2022-09-03T10:42:22.163Z,100272.81
2022-09-03T10:44:58.518Z,100264.19
2022-09-03T10:47:40.233Z,100262.94
2022-09-03T10:50:25.845Z,100265.75
2022-09-03T10:53:10.753Z,100261.97
2022-09-03T10:55:46.579Z,100253.53
2022-09-03T10:58:28.452Z,100259.53
2022-09-03T11:01:04.963Z,100256.78
2022-09-03T11:04:01.323Z,100254.13
2022-09-03T11:06:30.538Z,100262.63
2022-09-03T11:09:11.719Z,100261.47
2022-09-03T11:11:47.551Z,100255.19
2022-09-03T11:14:22.561Z,100246.72
2022-09-03T11:16:54.217Z,100250.91
2022-09-03T11:19:33.020Z,100241.91
2022-09-03T11:22:01.682Z,100248.66
2022-09-03T11:24:33.036Z,100245.06
2022-09-03T11:27:19.897Z,100248.50
2022-09-03T11:29:51.955Z,100240.13
2022-09-03T11:32:25.203Z,100240.34
2022-09-03T11:34:54.818Z,100235.78
2022-09-03T11:37:25.567Z,100231.84
2022-09-03T11:39:59.798Z,100245.16
2022-09-03T11:42:32.904Z,100240.13
2022-09-03T11:45:41.679Z,100247.03
2022-09-03T11:48:40.361Z,100236.84
2022-09-03T11:51:30.333Z,100235.56
2022-09-03T11:54:13.620Z,100239.50
2022-09-03T11:56:42.231Z,100231.25
2022-09-03T11:59:14.834Z,100240.53
2022-09-03T12:01:53.195Z,100234.81
2022-09-03T12:04:25.938Z,100232.22
2022-09-03T12:07:09.461Z,100239.16
2022-09-03T12:10:08.086Z,100226.59
2022-09-03T12:12:54.847Z,100240.97
2022-09-03T12:15:40.440Z,100237.09
2022-09-03T12:18:19.992Z,100226.22
2022-09-03T12:20:48.772Z,100226.59
2022-09-03T12:23:30.755Z,100233.38
2022-09-03T12:28:37.945Z,100230.34
2022-09-03T12:31:29.574Z,100221.88
2022-09-03T12:33:59.146Z,100225.31
2022-09-03T12:36:36.728Z,100215.09
2022-09-03T12:42:25.731Z,100214.03
2022-09-03T12:44:53.404Z,100220.88
2022-09-03T12:47:38.823Z,100221.19
2022-09-03T12:50:16.991Z,100221.16
2022-09-03T12:52:48.961Z,100209.34
2022-09-03T12:55:34.924Z,100210.34
2022-09-03T12:58:13.870Z,100203.31
2022-09-03T13:00:59.413Z,100207.47
2022-09-03T13:03:31.651Z,100205.66
2022-09-03T13:06:06.509Z,100207.69
2022-09-03T13:08:44.226Z,100204.47
2022-09-03T13:11:15.570Z,100208.88
2022-09-03T13:14:02.542Z,100202.06
2022-09-03T13:16:38.868Z,100197.66
2022-09-03T13:19:11.786Z,100202.19
2022-09-03T13:22:07.732Z,100202.06
2022-09-03T13:24:53.140Z,100197.47
2022-09-03T13:27:38.229Z,100201.09
2022-09-03T13:30:07.665Z,100200.50
2022-09-03T13:33:11.834Z,100202.81
2022-09-03T13:35:46.711Z,100198.44
2022-09-03T13:38:43.679Z,100202.22
2022-09-03T13:41:38.682Z,100199.06
2022-09-03T13:44:18.148Z,100197.09
2022-09-03T13:47:09.757Z,100198.44
2022-09-03T13:50:09.135Z,100195.09
2022-09-03T13:53:02.601Z,100198.63
2022-09-03T13:55:37.856Z,100187.97
2022-09-03T13:58:28.544Z,100193.53
2022-09-03T14:00:58.285Z,100197.59
2022-09-03T14:03:33.411Z,100199.88
2022-09-03T14:06:02.704Z,100195.81
2022-09-03T14:08:59.102Z,100202.63
2022-09-03T14:11:41.221Z,100196.13
2022-09-03T14:14:42.072Z,100193.84
2022-09-03T14:17:25.820Z,100200.72
2022-09-03T14:20:02.415Z,100200.22
2022-09-03T14:22:53.273Z,100216.94
2022-09-03T14:25:26.029Z,100203.25
2022-09-03T14:27:54.604Z,100206.81
2022-09-03T14:30:46.408Z,100201.16
2022-09-03T14:33:24.853Z,100205.69
2022-09-03T14:36:08.206Z,100216.81
2022-09-03T14:39:09.301Z,100218.06
2022-09-03T14:41:52.394Z,100215.88
2022-09-03T14:44:40.508Z,100212.94
2022-09-03T14:47:34.584Z,100216.94
2022-09-03T14:50:26.527Z,100223.03
2022-09-03T14:53:17.710Z,100225.13
2022-09-03T14:56:18.684Z,100221.56
2022-09-03T14:59:19.146Z,100220.72
2022-09-03T15:02:12.633Z,100226.56
2022-09-03T15:05:11.727Z,100229.84
2022-09-03T15:07:59.240Z,100229.16
2022-09-03T15:10:25.905Z,100223.22
2022-09-03T15:12:58.928Z,100219.13
2022-09-03T15:15:54.600Z,100225.91
2022-09-03T15:18:51.069Z,100225.53
2022-09-03T15:21:41.398Z,100223.88
2022-09-03T15:24:34.501Z,100227.78
2022-09-03T15:27:20.648Z,100224.44
2022-09-03T15:30:11.157Z,100221.84
2022-09-03T15:32:37.775Z,100223.06
2022-09-03T15:35:10.852Z,100218.47
2022-09-03T15:38:04.365Z,100223.09
2022-09-03T15:40:36.244Z,100222.72
2022-09-03T15:43:17.599Z,100225.03
2022-09-03T15:45:47.086Z,100218.94
2022-09-03T15:48:19.850Z,100218.06
2022-09-03T15:51:09.966Z,100213.75
2022-09-03T15:53:45.948Z,100225.41
2022-09-03T15:56:16.235Z,100217.66
2022-09-03T15:58:52.795Z,100220.19
2022-09-03T16:01:26.977Z,100225.91
2022-09-03T16:03:59.486Z,100224.78
2022-09-03T16:06:38.493Z,100230.50
2022-09-03T16:09:29.844Z,100228.16
2022-09-03T16:12:24.940Z,100227.00
2022-09-03T16:15:07.609Z,100238.69
2022-09-03T16:17:49.959Z,100235.88
2022-09-03T16:20:26.229Z,100234.16
2022-09-03T16:23:14.877Z,100230.50
2022-09-03T16:25:50.642Z,100224.25
2022-09-03T16:28:26.545Z,100231.66
2022-09-03T16:31:42.993Z,100235.94
2022-09-03T16:34:31.222Z,100240.81
2022-09-03T16:37:35.005Z,100232.16
2022-09-03T16:40:27.761Z,100235.72
2022-09-03T16:43:36.888Z,100237.94
2022-09-03T16:46:18.988Z,100236.69
2022-09-03T16:48:51.828Z,100246.88
2022-09-03T16:51:53.988Z,100234.38
2022-09-03T16:54:55.749Z,100243.66
2022-09-03T16:57:35.907Z,100246.22
2022-09-03T17:00:11.847Z,100238.19
2022-09-03T17:03:09.451Z,100243.50
2022-09-03T17:06:01.180Z,100245.94
2022-09-03T17:08:53.041Z,100250.94
2022-09-03T17:11:37.707Z,100249.91
2022-09-03T17:14:07.639Z,100255.47
2022-09-03T17:16:39.001Z,100251.38
2022-09-03T17:19:31.794Z,100251.47
2022-09-03T17:22:23.457Z,100251.88
2022-09-03T17:25:03.791Z,100246.97
2022-09-03T17:28:09.696Z,100255.19
2022-09-03T17:30:56.077Z,100256.78
2022-09-03T17:33:51.238Z,100258.69
2022-09-03T17:36:22.309Z,100253.34
2022-09-03T17:39:09.497Z,100260.34
2022-09-03T17:41:42.425Z,100260.75
2022-09-03T17:44:27.557Z,100264.06
2022-09-03T17:47:28.122Z,100266.50
2022-09-03T17:50:02.261Z,100265.47
2022-09-03T17:52:39.353Z,100276.53
2022-09-03T17:55:21.859Z,100275.97
2022-09-03T17:58:03.893Z,100285.16
2022-09-03T18:00:41.981Z,100280.63
2022-09-03T18:03:21.570Z,100283.44
2022-09-03T18:06:01.454Z,100283.78
2022-09-03T18:08:43.651Z,100289.25
2022-09-03T18:11:14.075Z,100301.16
2022-09-03T18:13:59.696Z,100302.88
2022-09-03T18:16:26.725Z,100309.06
2022-09-03T18:19:02.849Z,100311.13
2022-09-03T18:21:52.813Z,100310.59
2022-09-03T18:24:50.786Z,100319.34
2022-09-03T18:27:45.765Z,100319.94
2022-09-03T18:30:33.563Z,100322.28
2022-09-03T18:33:18.717Z,100339.25
2022-09-03T18:36:05.131Z,100336.03
2022-09-03T18:38:53.032Z,100346.91
2022-09-03T18:41:48.541Z,100350.81
2022-09-03T18:44:42.824Z,100344.94
2022-09-03T18:48:05.669Z,100341.56
2022-09-03T18:51:25.169Z,100347.19
2022-09-03T18:54:23.550Z,100350.09
2022-09-03T18:57:12.057Z,100342.25
2022-09-03T19:00:09.427Z,100356.41
2022-09-03T19:03:07.139Z,100363.13
2022-09-03T19:06:21.860Z,100365.94
2022-09-03T19:09:26.983Z,100366.81
2022-09-03T19:12:35.511Z,100362.06
2022-09-03T19:15:31.854Z,100370.84
2022-09-03T19:18:56.234Z,100367.88
2022-09-03T19:21:51.594Z,100379.78
2022-09-03T19:24:41.376Z,100379.28
2022-09-03T19:27:58.547Z,100382.38
2022-09-03T19:31:09.427Z,100386.72
2022-09-03T19:34:33.501Z,100388.72
2022-09-03T19:37:30.007Z,100392.91
2022-09-03T19:40:21.530Z,100400.81
2022-09-03T19:43:49.601Z,100396.38
2022-09-03T19:47:04.982Z,100407.16
2022-09-03T19:50:08.536Z,100400.69
2022-09-03T19:52:57.142Z,100409.13
2022-09-03T19:55:50.644Z,100418.91
2022-09-03T19:58:43.659Z,100425.03
2022-09-03T20:01:30.051Z,100433.59
2022-09-03T20:04:18.959Z,100421.56
2022-09-03T20:07:05.069Z,100428.22
2022-09-03T20:09:58.387Z,100436.03
2022-09-03T20:12:29.862Z,100435.19
2022-09-03T20:14:56.873Z,100437.44
2022-09-03T20:17:42.770Z,100438.91
2022-09-03T20:20:15.677Z,100445.97
2022-09-03T20:22:57.925Z,100443.13
2022-09-03T20:25:56.209Z,100439.47
2022-09-03T20:29:00.727Z,100435.53
2022-09-03T20:31:51.681Z,100442.03
2022-09-03T20:34:18.521Z,100440.28
2022-09-03T20:37:05.311Z,100448.16
2022-09-03T20:39:35.009Z,100456.03
2022-09-03T20:42:13.943Z,100456.03
2022-09-03T20:44:47.293Z,100459.44
2022-09-03T20:47:30.342Z,100458.66
2022-09-03T20:50:03.924Z,100454.19
2022-09-03T20:52:38.680Z,100456.72
2022-09-03T20:55:20.001Z,100462.84
2022-09-03T20:58:22.129Z,100459.44
2022-09-03T21:01:23.111Z,100465.69
2022-09-03T21:04:14.812Z,100467.97
2022-09-03T21:06:53.258Z,100459.00
2022-09-03T21:09:44.824Z,100468.84
2022-09-03T21:12:29.538Z,100466.84
2022-09-03T21:15:08.206Z,100476.09
2022-09-03T21:17:55.802Z,100469.63
2022-09-03T21:20:28.045Z,100469.34
2022-09-03T21:23:05.747Z,100480.88
2022-09-03T21:25:40.004Z,100470.25
2022-09-03T21:28:15.001Z,100470.25
2022-09-03T21:30:47.401Z,100469.16
2022-09-03T21:33:19.866Z,100474.19
2022-09-03T21:35:54.265Z,100470.78
2022-09-03T21:38:24.906Z,100476.41
2022-09-03T21:41:05.024Z,100474.72
2022-09-03T21:43:58.833Z,100472.78
2022-09-03T21:46:31.040Z,100474.75
2022-09-03T21:49:06.411Z,100475.34
2022-09-03T21:51:47.401Z,100487.16
2022-09-03T21:54:21.620Z,100480.44
2022-09-03T21:56:57.550Z,100486.34
2022-09-03T21:59:55.373Z,100475.41
2022-09-03T22:02:29.945Z,100478.22
2022-09-03T22:04:57.802Z,100480.44
2022-09-03T22:07:50.743Z,100482.09
2022-09-03T22:10:39.263Z,100495.28
2022-09-03T22:13:29.909Z,100500.59
2022-09-03T22:16:13.126Z,100491.88
2022-09-03T22:18:40.476Z,100496.94
2022-09-03T22:21:20.415Z,100492.75
2022-09-03T22:24:31.925Z,100501.16
2022-09-03T22:27:20.239Z,100495.28
2022-09-03T22:29:59.128Z,100501.44
2022-09-03T22:32:53.836Z,100500.84
2022-09-03T22:35:59.010Z,100502.25
2022-09-03T22:38:46.487Z,100495.78
2022-09-03T22:41:50.117Z,100492.94
2022-09-03T22:44:45.844Z,100505.22
2022-09-03T22:47:27.558Z,100506.63
2022-09-03T22:49:54.120Z,100512.78
2022-09-03T22:52:40.513Z,100504.94
2022-09-03T22:55:15.867Z,100512.75
2022-09-03T22:57:53.337Z,100514.41
2022-09-03T23:00:21.126Z,100517.16
2022-09-03T23:02:56.195Z,100519.38
2022-09-03T23:05:44.224Z,100514.91
2022-09-03T23:08:17.882Z,100528.56
2022-09-03T23:10:59.495Z,100519.81
2022-09-03T23:13:51.522Z,100519.88
2022-09-03T23:16:30.479Z,100524.81
2022-09-03T23:19:01.943Z,100529.16
2022-09-03T23:21:40.750Z,100531.75
2022-09-03T23:24:25.996Z,100531.00
2022-09-03T23:26:53.504Z,100529.09
2022-09-03T23:29:40.315Z,100533.53
2022-09-03T23:32:09.096Z,100540.81
2022-09-03T23:34:36.342Z,100530.91
2022-09-03T23:37:34.091Z,100532.41
2022-09-03T23:40:08.922Z,100532.78
2022-09-03T23:42:50.526Z,100542.94
2022-09-03T23:45:39.112Z,100533.50
2022-09-03T23:48:36.675Z,100539.13
2022-09-03T23:51:12.680Z,100538.59
2022-09-03T23:53:54.455Z,100542.56
2022-09-03T23:56:30.496Z,100547.63
2022-09-03T23:59:28.557Z,100543.97
